createdAt,value
2022-09-16T00:00:40.067Z,0.00
2022-09-16T00:01:40.259Z,0.00
2022-09-16T00:02:40.376Z,0.00
2022-09-16T00:03:40.002Z,0.00
2022-09-16T00:04:39.993Z,0.00
2022-09-16T00:05:39.987Z,0.00
2022-09-16T00:06:40.000Z,0.00
2022-09-16T00:07:39.969Z,0.00
2022-09-16T00:08:39.959Z,0.00
2022-09-16T00:09:39.953Z,0.00
2022-09-16T00:10:39.942Z,0.00
2022-09-16T00:11:39.935Z,0.00
2022-09-16T00:12:39.926Z,0.00
2022-09-16T00:13:40.122Z,0.00
2022-09-16T00:14:39.909Z,0.00
2022-09-16T00:15:39.903Z,0.00
2022-09-16T00:16:39.970Z,0.00
2022-09-16T00:17:39.887Z,0.00
2022-09-16T00:18:39.875Z,0.00
2022-09-16T00:19:39.872Z,0.00
2022-09-16T00:20:39.858Z,0.00
2022-09-16T00:21:39.852Z,0.00
2022-09-16T00:22:39.864Z,0.00
2022-09-16T00:23:39.835Z,0.00
2022-09-16T00:24:39.827Z,0.00
2022-09-16T00:25:39.819Z,0.00
2022-09-16T00:26:39.807Z,0.00
2022-09-16T00:27:39.802Z,0.00
2022-09-16T00:28:39.791Z,0.00
2022-09-16T00:29:39.787Z,0.00
2022-09-16T00:30:39.774Z,0.00
2022-09-16T00:31:39.816Z,0.00
2022-09-16T00:32:39.809Z,0.00
2022-09-16T00:33:39.753Z,0.00
2022-09-16T00:34:39.741Z,0.00
2022-09-16T00:35:39.735Z,0.00
2022-09-16T00:36:39.927Z,0.00
2022-09-16T00:37:39.718Z,0.00
2022-09-16T00:38:39.733Z,0.00
2022-09-16T00:39:39.904Z,0.00
2022-09-16T00:40:39.692Z,0.00
2022-09-16T00:41:39.686Z,0.00
2022-09-16T00:42:39.674Z,0.00
2022-09-16T00:43:39.668Z,0.00
2022-09-16T00:44:39.658Z,0.00
2022-09-16T00:45:39.652Z,0.00
2022-09-16T00:46:39.702Z,0.00
2022-09-16T00:47:39.634Z,0.00
2022-09-16T00:48:39.625Z,0.00
2022-09-16T00:49:39.619Z,0.00
2022-09-16T00:50:39.607Z,0.00
2022-09-16T00:51:39.601Z,0.00
2022-09-16T00:52:39.592Z,0.00
2022-09-16T00:53:43.010Z,0.00
2022-09-16T00:54:39.599Z,0.00
2022-09-16T00:55:39.569Z,0.00
2022-09-16T00:56:39.961Z,0.00
2022-09-16T00:57:39.552Z,0.00
2022-09-16T00:58:39.546Z,0.00
2022-09-16T00:59:39.536Z,0.00
2022-09-16T01:00:39.562Z,0.00
2022-09-16T01:01:39.609Z,0.00
2022-09-16T01:02:39.508Z,0.00
2022-09-16T01:03:39.501Z,0.00
2022-09-16T01:04:39.490Z,0.00
2022-09-16T01:05:39.487Z,0.00
2022-09-16T01:06:39.475Z,0.00
2022-09-16T01:07:39.468Z,0.00
2022-09-16T01:08:39.458Z,0.00
2022-09-16T01:09:39.453Z,0.00
2022-09-16T01:10:39.463Z,0.00
2022-09-16T01:11:39.435Z,0.00
2022-09-16T01:12:39.427Z,0.00
2022-09-16T01:13:39.418Z,0.00
2022-09-16T01:14:39.408Z,0.00
2022-09-16T01:15:39.405Z,0.00
2022-09-16T01:16:39.593Z,0.00
2022-09-16T01:17:39.386Z,0.00
2022-09-16T01:18:39.388Z,0.00
2022-09-16T01:19:39.369Z,0.00
2022-09-16T01:20:39.361Z,0.00
2022-09-16T01:21:39.353Z,0.00
2022-09-16T01:22:39.341Z,0.00
2022-09-16T01:23:39.336Z,0.00
2022-09-16T01:24:39.375Z,0.00
2022-09-16T01:25:39.318Z,0.00
2022-09-16T01:26:39.334Z,0.00
2022-09-16T01:27:39.303Z,0.00
2022-09-16T01:28:39.291Z,0.00
2022-09-16T01:29:39.287Z,0.00
2022-09-16T01:30:39.275Z,0.00
2022-09-16T01:31:39.357Z,0.00
2022-09-16T01:32:39.260Z,0.00
2022-09-16T01:33:39.253Z,0.00
2022-09-16T01:34:39.242Z,0.00
2022-09-16T01:35:39.237Z,0.00
2022-09-16T01:36:39.225Z,0.00
2022-09-16T01:37:39.218Z,0.00
2022-09-16T01:38:39.211Z,0.00
2022-09-16T01:39:39.199Z,0.00
2022-09-16T01:40:39.196Z,0.00
2022-09-16T01:41:39.233Z,0.00
2022-09-16T01:42:39.215Z,0.00
2022-09-16T01:43:39.171Z,0.00
2022-09-16T01:44:39.163Z,0.00
2022-09-16T01:45:39.149Z,0.00
2022-09-16T01:46:39.205Z,0.00
2022-09-16T01:47:39.333Z,0.00
2022-09-16T01:48:39.128Z,0.00
2022-09-16T01:49:39.117Z,0.00
2022-09-16T01:50:39.110Z,0.00
2022-09-16T01:52:39.091Z,0.00
2022-09-16T01:53:39.084Z,0.00
2022-09-16T01:54:39.073Z,0.00
2022-09-16T01:55:39.067Z,0.00
2022-09-16T01:56:39.057Z,0.00
2022-09-16T01:57:39.051Z,0.00
2022-09-16T01:58:39.056Z,0.00
2022-09-16T01:59:39.033Z,0.00
2022-09-16T02:00:39.023Z,0.00
2022-09-16T02:01:39.132Z,0.00
2022-09-16T02:02:39.054Z,0.00
2022-09-16T02:03:39.000Z,0.00
2022-09-16T02:04:38.989Z,0.00
2022-09-16T02:05:38.983Z,0.00
2022-09-16T02:06:38.972Z,0.00
2022-09-16T02:07:38.964Z,0.00
2022-09-16T02:08:38.957Z,0.00
2022-09-16T02:09:38.949Z,0.00
2022-09-16T02:10:38.940Z,0.00
2022-09-16T02:11:38.933Z,0.00
2022-09-16T02:12:38.921Z,0.00
2022-09-16T02:13:38.915Z,0.00
2022-09-16T02:14:38.922Z,0.00
2022-09-16T02:15:38.930Z,0.00
2022-09-16T02:16:38.888Z,0.00
2022-09-16T02:18:38.871Z,0.00
2022-09-16T02:19:38.861Z,0.00
2022-09-16T02:20:38.856Z,0.00
2022-09-16T02:21:41.298Z,0.00
2022-09-16T02:22:38.839Z,0.00
2022-09-16T02:23:38.830Z,0.00
2022-09-16T02:24:38.823Z,0.00
2022-09-16T02:25:38.812Z,0.00
2022-09-16T02:26:38.804Z,0.00
2022-09-16T02:27:38.846Z,0.00
2022-09-16T02:28:38.791Z,0.00
2022-09-16T02:29:38.779Z,0.00
2022-09-16T02:30:38.792Z,0.00
2022-09-16T02:31:38.821Z,0.00
2022-09-16T02:32:38.754Z,0.00
2022-09-16T02:33:38.745Z,0.00
2022-09-16T02:34:38.736Z,0.00
2022-09-16T02:35:38.725Z,0.00
2022-09-16T02:36:38.720Z,0.00
2022-09-16T02:37:38.715Z,0.00
2022-09-16T02:38:38.703Z,0.00
2022-09-16T02:39:38.692Z,0.00
2022-09-16T02:40:38.686Z,0.00
2022-09-16T02:41:38.677Z,0.00
2022-09-16T02:42:38.666Z,0.00
2022-09-16T02:43:38.658Z,0.00
2022-09-16T02:44:38.651Z,0.00
2022-09-16T02:45:38.642Z,0.00
2022-09-16T02:46:38.751Z,0.00
2022-09-16T02:47:38.625Z,0.00
2022-09-16T02:48:38.618Z,0.00
2022-09-16T02:49:38.608Z,0.00
2022-09-16T02:50:38.600Z,0.00
2022-09-16T02:51:38.592Z,0.00
2022-09-16T02:52:38.584Z,0.00
2022-09-16T02:53:38.577Z,0.00
2022-09-16T02:54:38.566Z,0.00
2022-09-16T02:55:38.563Z,0.00
2022-09-16T02:56:38.549Z,0.00
2022-09-16T02:57:38.540Z,0.00
2022-09-16T02:58:38.534Z,0.00
2022-09-16T02:59:38.523Z,0.00
2022-09-16T03:00:38.521Z,0.00
2022-09-16T03:01:38.552Z,0.00
2022-09-16T03:02:38.556Z,0.00
2022-09-16T03:03:38.490Z,0.00
2022-09-16T03:04:38.491Z,0.00
2022-09-16T03:05:38.472Z,0.00
2022-09-16T03:06:38.466Z,0.00
2022-09-16T03:07:38.454Z,0.00
2022-09-16T03:08:38.452Z,0.00
2022-09-16T03:09:38.438Z,0.00
2022-09-16T03:10:38.431Z,0.00
2022-09-16T03:11:38.419Z,0.00
2022-09-16T03:12:38.418Z,0.00
2022-09-16T03:13:38.405Z,0.00
2022-09-16T03:14:38.397Z,0.00
2022-09-16T03:15:38.449Z,0.00
2022-09-16T03:16:41.549Z,0.00
2022-09-16T03:17:38.371Z,0.00
2022-09-16T03:18:38.384Z,0.00
2022-09-16T03:19:38.352Z,0.00
2022-09-16T03:20:38.347Z,0.00
2022-09-16T03:21:38.339Z,0.00
2022-09-16T03:22:38.330Z,0.00
2022-09-16T03:23:38.318Z,0.00
2022-09-16T03:24:38.311Z,0.00
2022-09-16T03:25:38.302Z,0.00
2022-09-16T03:26:38.295Z,0.00
2022-09-16T03:27:38.284Z,0.00
2022-09-16T03:28:38.278Z,0.00
2022-09-16T03:29:40.593Z,0.00
2022-09-16T03:30:38.260Z,0.00
2022-09-16T03:31:38.272Z,0.00
2022-09-16T03:32:38.242Z,0.00
2022-09-16T03:33:38.233Z,0.00
2022-09-16T03:34:38.244Z,0.00
2022-09-16T03:35:38.215Z,0.00
2022-09-16T03:36:38.213Z,0.00
2022-09-16T03:37:38.198Z,0.00
2022-09-16T03:38:38.190Z,0.00
2022-09-16T03:39:38.180Z,0.00
2022-09-16T03:40:38.174Z,0.00
2022-09-16T03:41:38.162Z,0.00
2022-09-16T03:42:38.157Z,0.00
2022-09-16T03:43:38.147Z,0.00
2022-09-16T03:44:38.138Z,0.00
2022-09-16T03:45:38.130Z,0.00
2022-09-16T03:46:38.228Z,0.00
2022-09-16T03:47:38.111Z,0.00
2022-09-16T03:48:38.106Z,0.00
2022-09-16T03:49:38.096Z,0.00
2022-09-16T03:50:38.105Z,0.00
2022-09-16T03:51:38.076Z,0.00
2022-09-16T03:52:38.070Z,0.00
2022-09-16T03:53:38.059Z,0.00
2022-09-16T03:54:38.052Z,0.00
2022-09-16T03:55:38.041Z,0.00
2022-09-16T03:57:38.026Z,0.00
2022-09-16T03:58:38.014Z,0.00
2022-09-16T03:59:38.008Z,0.00
2022-09-16T04:01:38.047Z,0.00
2022-09-16T04:02:38.066Z,0.00
2022-09-16T04:03:37.972Z,0.00
2022-09-16T04:04:37.966Z,0.00
2022-09-16T04:05:37.954Z,0.00
2022-09-16T04:06:37.969Z,0.00
2022-09-16T04:07:37.936Z,0.00
2022-09-16T04:08:37.931Z,0.00
2022-09-16T04:09:37.920Z,0.00
2022-09-16T04:10:37.913Z,0.00
2022-09-16T04:11:37.903Z,0.00
2022-09-16T04:12:37.895Z,0.00
2022-09-16T04:13:37.886Z,0.00
2022-09-16T04:14:37.878Z,0.00
2022-09-16T04:15:37.917Z,0.00
2022-09-16T04:16:37.862Z,0.00
2022-09-16T04:17:37.853Z,0.00
2022-09-16T04:18:37.850Z,0.00
2022-09-16T04:19:37.837Z,0.00
2022-09-16T04:20:37.825Z,0.00
2022-09-16T04:21:37.814Z,0.00
2022-09-16T04:22:37.828Z,0.00
2022-09-16T04:23:37.797Z,0.00
2022-09-16T04:24:37.792Z,0.00
2022-09-16T04:25:37.781Z,0.00
2022-09-16T04:26:37.775Z,0.00
2022-09-16T04:27:37.762Z,0.00
2022-09-16T04:28:37.758Z,0.00
2022-09-16T04:29:37.753Z,0.00
2022-09-16T04:30:37.806Z,0.00
2022-09-16T04:31:37.728Z,0.00
2022-09-16T04:32:37.822Z,0.00
2022-09-16T04:33:37.710Z,0.00
2022-09-16T04:34:37.702Z,0.00
2022-09-16T04:35:37.691Z,0.00
2022-09-16T04:36:37.685Z,0.00
2022-09-16T04:37:37.725Z,0.00
2022-09-16T04:38:37.688Z,0.00
2022-09-16T04:39:37.658Z,0.00
2022-09-16T04:40:37.732Z,0.00
2022-09-16T04:41:37.640Z,0.00
2022-09-16T04:42:37.632Z,4.00
2022-09-16T04:43:37.623Z,4.00
2022-09-16T04:44:37.615Z,4.00
2022-09-16T04:45:37.605Z,4.00
2022-09-16T04:46:37.662Z,0.00
2022-09-16T04:47:37.586Z,0.00
2022-09-16T04:48:37.578Z,4.00
2022-09-16T04:49:37.570Z,4.00
2022-09-16T04:50:37.563Z,4.00
2022-09-16T04:51:37.551Z,4.00
2022-09-16T04:52:37.545Z,4.00
2022-09-16T04:53:37.534Z,8.00
2022-09-16T04:54:37.544Z,8.00
2022-09-16T04:55:37.516Z,8.00
2022-09-16T04:56:37.518Z,8.00
2022-09-16T04:57:37.497Z,8.00
2022-09-16T04:58:37.490Z,8.00
2022-09-16T04:59:37.480Z,8.00
2022-09-16T05:00:37.475Z,12.00
2022-09-16T05:01:37.548Z,12.00
2022-09-16T05:02:37.662Z,16.00
2022-09-16T05:03:37.518Z,16.00
2022-09-16T05:04:37.440Z,20.00
2022-09-16T05:05:37.430Z,20.00
2022-09-16T05:06:37.422Z,28.00
2022-09-16T05:07:37.411Z,28.00
2022-09-16T05:08:37.408Z,28.00
2022-09-16T05:09:37.393Z,36.00
2022-09-16T05:10:37.403Z,40.00
2022-09-16T05:11:37.375Z,44.00
2022-09-16T05:12:37.368Z,52.00
2022-09-16T05:13:37.358Z,56.00
2022-09-16T05:14:37.554Z,68.00
2022-09-16T05:15:37.398Z,76.00
2022-09-16T05:16:37.334Z,80.00
2022-09-16T05:17:50.876Z,80.00
2022-09-16T05:18:37.316Z,84.00
2022-09-16T05:19:37.307Z,84.00
2022-09-16T05:20:37.299Z,84.00
2022-09-16T05:21:37.290Z,80.00
2022-09-16T05:22:37.281Z,84.00
2022-09-16T05:23:37.270Z,84.00
2022-09-16T05:24:37.264Z,80.00
2022-09-16T05:25:37.252Z,80.00
2022-09-16T05:26:37.357Z,76.00
2022-09-16T05:27:37.236Z,76.00
2022-09-16T05:28:37.229Z,80.00
2022-09-16T05:29:37.218Z,76.00
2022-09-16T05:30:37.265Z,84.00
2022-09-16T05:31:37.200Z,80.00
2022-09-16T05:32:37.194Z,84.00
2022-09-16T05:33:37.185Z,96.00
2022-09-16T05:34:37.177Z,108.00
2022-09-16T05:35:37.165Z,120.00
2022-09-16T05:36:37.159Z,144.00
2022-09-16T05:37:37.149Z,160.00
2022-09-16T05:38:37.141Z,168.00
2022-09-16T05:39:37.133Z,184.00
2022-09-16T05:40:37.124Z,192.00
2022-09-16T05:41:37.117Z,208.00
2022-09-16T05:42:37.224Z,216.00
2022-09-16T05:43:37.097Z,216.00
2022-09-16T05:44:37.090Z,216.00
2022-09-16T05:45:37.080Z,212.00
2022-09-16T05:46:37.071Z,216.00
2022-09-16T05:47:37.062Z,228.00
2022-09-16T05:48:37.055Z,256.00
2022-09-16T05:49:37.047Z,272.00
2022-09-16T05:50:37.038Z,272.00
2022-09-16T05:51:37.027Z,276.00
2022-09-16T05:52:37.021Z,284.00
2022-09-16T05:53:37.010Z,296.00
2022-09-16T05:54:37.003Z,316.00
2022-09-16T05:55:36.992Z,328.00
2022-09-16T05:56:36.987Z,336.00
2022-09-16T05:57:36.977Z,344.00
2022-09-16T05:58:37.082Z,336.00
2022-09-16T05:59:36.960Z,336.00
2022-09-16T06:00:36.949Z,340.00
2022-09-16T06:01:37.007Z,344.00
2022-09-16T06:02:37.127Z,352.00
2022-09-16T06:03:36.927Z,360.00
2022-09-16T06:04:36.916Z,364.00
2022-09-16T06:05:36.909Z,360.00
2022-09-16T06:06:36.897Z,360.00
2022-09-16T06:07:36.892Z,356.00
2022-09-16T06:08:36.881Z,356.00
2022-09-16T06:09:36.873Z,368.00
2022-09-16T06:10:36.864Z,372.00
2022-09-16T06:11:36.858Z,396.00
2022-09-16T06:12:36.848Z,444.00
2022-09-16T06:13:36.840Z,460.00
2022-09-16T06:14:36.964Z,476.00
2022-09-16T06:15:36.874Z,452.00
2022-09-16T06:16:36.813Z,432.00
2022-09-16T06:17:36.806Z,408.00
2022-09-16T06:18:36.797Z,392.00
2022-09-16T06:19:36.791Z,376.00
2022-09-16T06:20:36.779Z,380.00
2022-09-16T06:21:36.773Z,404.00
2022-09-16T06:22:36.762Z,436.00
2022-09-16T06:23:36.755Z,392.00
2022-09-16T06:24:36.746Z,312.00
2022-09-16T06:25:36.740Z,260.00
2022-09-16T06:26:36.727Z,232.00
2022-09-16T06:27:36.724Z,220.00
2022-09-16T06:28:36.713Z,220.00
2022-09-16T06:29:36.707Z,236.00
2022-09-16T06:30:36.877Z,256.00
2022-09-16T06:31:36.693Z,276.00
2022-09-16T06:32:36.679Z,280.00
2022-09-16T06:33:36.676Z,264.00
2022-09-16T06:34:36.662Z,252.00
2022-09-16T06:35:36.655Z,260.00
2022-09-16T06:36:38.543Z,280.00
2022-09-16T06:37:36.639Z,320.00
2022-09-16T06:38:36.628Z,324.00
2022-09-16T06:39:36.623Z,300.00
2022-09-16T06:40:36.682Z,288.00
2022-09-16T06:41:36.607Z,296.00
2022-09-16T06:42:36.595Z,324.00
2022-09-16T06:43:36.589Z,368.00
2022-09-16T06:44:36.579Z,376.00
2022-09-16T06:45:36.573Z,392.00
2022-09-16T06:46:36.687Z,408.00
2022-09-16T06:47:36.557Z,436.00
2022-09-16T06:48:36.547Z,460.00
2022-09-16T06:49:36.539Z,464.00
2022-09-16T06:50:36.527Z,516.00
2022-09-16T06:51:36.572Z,636.00
2022-09-16T06:52:36.515Z,692.00
2022-09-16T06:53:36.507Z,664.00
2022-09-16T06:54:36.496Z,668.00
2022-09-16T06:55:36.489Z,688.00
2022-09-16T06:56:36.480Z,768.00
2022-09-16T06:57:36.473Z,804.00
2022-09-16T06:58:36.462Z,796.00
2022-09-16T06:59:36.455Z,780.00
2022-09-16T07:00:36.445Z,824.00
2022-09-16T07:02:36.636Z,876.00
2022-09-16T07:03:36.421Z,912.00
2022-09-16T07:04:36.429Z,984.00
2022-09-16T07:05:36.406Z,1048.00
2022-09-16T07:07:08.601Z,1084.00
2022-09-16T07:07:36.395Z,1112.00
2022-09-16T07:08:36.384Z,1100.00
2022-09-16T07:09:36.374Z,1092.00
2022-09-16T07:10:36.367Z,1088.00
2022-09-16T07:11:36.358Z,1080.00
2022-09-16T07:12:36.353Z,1048.00
2022-09-16T07:13:36.340Z,1024.00
2022-09-16T07:14:36.334Z,1064.00
2022-09-16T07:15:50.900Z,1120.00
2022-09-16T07:16:36.401Z,1228.00
2022-09-16T07:17:36.309Z,1280.00
2022-09-16T07:18:36.423Z,1264.00
2022-09-16T07:19:36.292Z,1248.00
2022-09-16T07:20:36.285Z,1280.00
2022-09-16T07:21:36.279Z,1440.00
2022-09-16T07:22:36.270Z,1484.00
2022-09-16T07:23:36.260Z,1556.00
2022-09-16T07:24:36.254Z,1580.00
2022-09-16T07:25:36.245Z,1628.00
2022-09-16T07:26:36.237Z,1768.00
2022-09-16T07:27:36.228Z,1960.00
2022-09-16T07:28:36.222Z,2280.00
2022-09-16T07:29:36.212Z,2052.00
2022-09-16T07:30:36.222Z,2056.00
2022-09-16T07:31:36.217Z,2104.00
2022-09-16T07:32:36.190Z,2000.00
2022-09-16T07:33:36.180Z,1488.00
2022-09-16T07:34:36.289Z,1140.00
2022-09-16T07:35:36.165Z,1080.00
2022-09-16T07:36:36.162Z,1068.00
2022-09-16T07:37:39.361Z,1156.00
2022-09-16T07:38:36.147Z,1228.00
2022-09-16T07:39:36.146Z,1316.00
2022-09-16T07:40:36.176Z,1288.00
2022-09-16T07:41:36.122Z,1280.00
2022-09-16T07:42:36.117Z,1228.00
2022-09-16T07:43:36.104Z,1152.00
2022-09-16T07:44:36.303Z,1060.00
2022-09-16T07:45:36.149Z,896.00
2022-09-16T07:46:36.084Z,844.00
2022-09-16T07:47:36.076Z,936.00
2022-09-16T07:48:36.071Z,1000.00
2022-09-16T07:49:36.264Z,976.00
2022-09-16T07:50:36.171Z,852.00
2022-09-16T07:51:36.050Z,796.00
2022-09-16T07:52:36.126Z,844.00
2022-09-16T07:53:36.032Z,1008.00
2022-09-16T07:54:36.028Z,1132.00
2022-09-16T07:55:36.017Z,1428.00
2022-09-16T07:56:36.010Z,1716.00
2022-09-16T07:57:36.003Z,1724.00
2022-09-16T07:58:35.996Z,1712.00
2022-09-16T07:59:35.987Z,1664.00
2022-09-16T08:00:35.983Z,1376.00
2022-09-16T08:01:39.003Z,1252.00
2022-09-16T08:02:36.055Z,1192.00
2022-09-16T08:03:35.958Z,1188.00
2022-09-16T08:04:35.982Z,1136.00
2022-09-16T08:05:35.945Z,1176.00
2022-09-16T08:06:36.055Z,1160.00
2022-09-16T08:07:35.928Z,1144.00
2022-09-16T08:08:35.928Z,1160.00
2022-09-16T08:09:39.844Z,1312.00
2022-09-16T08:10:35.922Z,1432.00
2022-09-16T08:11:35.899Z,1352.00
2022-09-16T08:12:35.894Z,1360.00
2022-09-16T08:13:35.927Z,1280.00
2022-09-16T08:14:35.924Z,1220.00
2022-09-16T08:15:35.871Z,1244.00
2022-09-16T08:16:35.887Z,1184.00
2022-09-16T08:17:35.857Z,1004.00
2022-09-16T08:18:35.851Z,900.00
2022-09-16T08:19:35.843Z,884.00
2022-09-16T08:20:35.836Z,960.00
2022-09-16T08:21:35.827Z,1084.00
2022-09-16T08:22:35.935Z,1204.00
2022-09-16T08:23:35.812Z,1172.00
2022-09-16T08:24:35.896Z,1120.00
2022-09-16T08:25:35.799Z,1164.00
2022-09-16T08:26:35.791Z,1304.00
2022-09-16T08:27:35.782Z,1656.00
2022-09-16T08:28:51.191Z,1812.00
2022-09-16T08:29:35.769Z,1728.00
2022-09-16T08:30:35.763Z,1512.00
2022-09-16T08:31:35.818Z,1540.00
2022-09-16T08:32:35.749Z,1608.00
2022-09-16T08:33:35.740Z,1688.00
2022-09-16T08:34:35.782Z,1920.00
2022-09-16T08:35:35.733Z,2380.00
2022-09-16T08:36:35.720Z,2728.00
2022-09-16T08:37:35.711Z,2700.00
2022-09-16T08:38:35.823Z,2540.00
2022-09-16T08:39:35.697Z,2672.00
2022-09-16T08:40:35.710Z,2296.00
2022-09-16T08:41:35.684Z,1988.00
2022-09-16T08:42:35.679Z,1732.00
2022-09-16T08:43:35.673Z,1668.00
2022-09-16T08:44:35.674Z,1564.00
2022-09-16T08:45:35.720Z,1532.00
2022-09-16T08:46:35.659Z,1588.00
2022-09-16T08:47:35.645Z,1592.00
2022-09-16T08:48:35.637Z,1632.00
2022-09-16T08:49:35.629Z,1704.00
2022-09-16T08:50:35.627Z,1828.00
2022-09-16T08:51:35.616Z,1568.00
2022-09-16T08:52:35.610Z,1628.00
2022-09-16T08:53:35.601Z,1796.00
2022-09-16T08:54:35.724Z,1876.00
2022-09-16T08:55:35.586Z,1900.00
2022-09-16T08:56:35.582Z,1868.00
2022-09-16T08:58:35.566Z,2396.00
2022-09-16T08:59:35.561Z,2104.00
2022-09-16T09:00:35.640Z,1772.00
2022-09-16T09:01:35.921Z,1572.00
2022-09-16T09:02:36.111Z,1556.00
2022-09-16T09:03:35.533Z,1584.00
2022-09-16T09:05:35.529Z,1724.00
2022-09-16T09:06:35.612Z,1840.00
2022-09-16T09:07:35.505Z,1880.00
2022-09-16T09:08:35.496Z,1904.00
2022-09-16T09:09:35.487Z,1852.00
2022-09-16T09:10:35.614Z,1752.00
2022-09-16T09:11:35.768Z,1620.00
2022-09-16T09:12:36.495Z,1476.00
2022-09-16T09:13:35.462Z,1288.00
2022-09-16T09:14:35.453Z,1284.00
2022-09-16T09:15:35.444Z,1400.00
2022-09-16T09:16:35.489Z,1640.00
2022-09-16T09:17:37.033Z,1600.00
2022-09-16T09:18:35.424Z,1540.00
2022-09-16T09:19:35.416Z,1356.00
2022-09-16T09:20:35.408Z,1356.00
2022-09-16T09:21:35.400Z,1328.00
2022-09-16T09:22:35.397Z,1384.00
2022-09-16T09:23:35.388Z,1388.00
2022-09-16T09:24:35.379Z,1356.00
2022-09-16T09:25:35.372Z,1360.00
2022-09-16T09:26:35.498Z,1384.00
2022-09-16T09:27:35.356Z,1436.00
2022-09-16T09:28:35.351Z,1548.00
2022-09-16T09:29:35.342Z,1700.00
2022-09-16T09:30:35.538Z,1776.00
2022-09-16T09:31:35.459Z,1732.00
2022-09-16T09:32:48.505Z,1716.00
2022-09-16T09:33:46.009Z,1708.00
2022-09-16T09:34:37.120Z,1604.00
2022-09-16T09:35:35.296Z,1492.00
2022-09-16T09:36:35.292Z,1372.00
2022-09-16T09:37:35.283Z,1280.00
2022-09-16T09:38:35.277Z,1220.00
2022-09-16T09:39:35.267Z,1144.00
2022-09-16T09:40:35.294Z,1088.00
2022-09-16T09:41:35.255Z,1080.00
2022-09-16T09:42:35.374Z,1136.00
2022-09-16T09:43:35.257Z,1192.00
2022-09-16T09:44:35.235Z,1256.00
2022-09-16T09:45:35.223Z,1332.00
2022-09-16T09:46:35.267Z,1468.00
2022-09-16T09:47:35.209Z,1660.00
2022-09-16T09:48:35.202Z,1700.00
2022-09-16T09:49:35.193Z,1744.00
2022-09-16T09:50:35.185Z,1732.00
2022-09-16T09:51:35.177Z,1764.00
2022-09-16T09:52:35.172Z,1732.00
2022-09-16T09:53:35.163Z,1656.00
2022-09-16T09:54:35.159Z,1548.00
2022-09-16T09:55:35.147Z,1484.00
2022-09-16T09:56:35.142Z,1400.00
2022-09-16T09:57:35.132Z,1344.00
2022-09-16T09:58:35.300Z,1344.00
2022-09-16T09:59:35.118Z,1376.00
2022-09-16T10:00:35.153Z,1408.00
2022-09-16T10:01:35.104Z,1396.00
2022-09-16T10:02:35.099Z,1388.00
2022-09-16T10:03:35.091Z,1316.00
2022-09-16T10:04:35.183Z,1216.00
2022-09-16T10:05:35.075Z,1180.00
2022-09-16T10:06:35.068Z,1096.00
2022-09-16T10:07:35.059Z,1028.00
2022-09-16T10:08:35.054Z,940.00
2022-09-16T10:09:35.054Z,896.00
2022-09-16T10:10:35.039Z,868.00
2022-09-16T10:11:35.030Z,792.00
2022-09-16T10:12:35.025Z,708.00
2022-09-16T10:13:35.018Z,628.00
2022-09-16T10:14:35.140Z,580.00
2022-09-16T10:15:35.001Z,528.00
2022-09-16T10:16:35.002Z,508.00
2022-09-16T10:17:34.989Z,516.00
2022-09-16T10:18:34.983Z,560.00
2022-09-16T10:19:34.976Z,620.00
2022-09-16T10:20:35.014Z,656.00
2022-09-16T10:21:34.979Z,692.00
2022-09-16T10:22:34.949Z,716.00
2022-09-16T10:23:34.944Z,744.00
2022-09-16T10:24:34.934Z,780.00
2022-09-16T10:25:34.929Z,800.00
2022-09-16T10:26:34.920Z,844.00
2022-09-16T10:27:34.914Z,868.00
2022-09-16T10:28:34.906Z,884.00
2022-09-16T10:29:34.900Z,896.00
2022-09-16T10:30:35.022Z,912.00
2022-09-16T10:31:34.974Z,920.00
2022-09-16T10:32:34.878Z,912.00
2022-09-16T10:33:34.877Z,904.00
2022-09-16T10:34:34.861Z,944.00
2022-09-16T10:35:34.856Z,968.00
2022-09-16T10:36:34.846Z,980.00
2022-09-16T10:37:34.842Z,960.00
2022-09-16T10:38:34.831Z,948.00
2022-09-16T10:39:34.826Z,948.00
2022-09-16T10:40:34.915Z,932.00
2022-09-16T10:41:34.811Z,1012.00
2022-09-16T10:42:34.802Z,1140.00
2022-09-16T10:43:34.797Z,1276.00
2022-09-16T10:44:34.787Z,1364.00
2022-09-16T10:45:34.783Z,1480.00
2022-09-16T10:46:35.000Z,1636.00
2022-09-16T10:47:34.828Z,1768.00
2022-09-16T10:48:34.759Z,1904.00
2022-09-16T10:49:34.754Z,1948.00
2022-09-16T10:50:34.743Z,1992.00
2022-09-16T10:51:34.737Z,2080.00
2022-09-16T10:52:34.729Z,2196.00
2022-09-16T10:53:39.130Z,2364.00
2022-09-16T10:54:34.714Z,2600.00
2022-09-16T10:55:34.710Z,2680.00
2022-09-16T10:56:34.703Z,2788.00
2022-09-16T10:57:34.695Z,2864.00
2022-09-16T10:58:34.686Z,2920.00
2022-09-16T10:59:34.683Z,3212.00
2022-09-16T11:00:34.707Z,3700.00
2022-09-16T11:01:36.334Z,3164.00
2022-09-16T11:02:34.795Z,3112.00
2022-09-16T11:03:34.655Z,3592.00
2022-09-16T11:04:34.646Z,3476.00
2022-09-16T11:05:34.641Z,3812.00
2022-09-16T11:06:34.633Z,3864.00
2022-09-16T11:07:34.630Z,3872.00
2022-09-16T11:08:34.622Z,3500.00
2022-09-16T11:09:34.618Z,3824.00
2022-09-16T11:10:34.608Z,3748.00
2022-09-16T11:11:34.657Z,3444.00
2022-09-16T11:12:34.597Z,3300.00
2022-09-16T11:13:34.592Z,3328.00
2022-09-16T11:14:34.584Z,2724.00
2022-09-16T11:15:34.581Z,2356.00
2022-09-16T11:17:34.567Z,2488.00
2022-09-16T11:18:34.697Z,2572.00
2022-09-16T11:19:34.555Z,2648.00
2022-09-16T11:20:34.553Z,2624.00
2022-09-16T11:21:34.546Z,2796.00
2022-09-16T11:22:34.542Z,2592.00
2022-09-16T11:23:34.533Z,2536.00
2022-09-16T11:24:34.529Z,2508.00
2022-09-16T11:25:34.522Z,2472.00
2022-09-16T11:26:34.518Z,2364.00
2022-09-16T11:27:34.511Z,2256.00
2022-09-16T11:28:34.507Z,2184.00
2022-09-16T11:29:34.500Z,2152.00
2022-09-16T11:30:34.496Z,2164.00
2022-09-16T11:31:34.509Z,2148.00
2022-09-16T11:32:34.599Z,2128.00
2022-09-16T11:33:34.478Z,2080.00
2022-09-16T11:34:34.600Z,2004.00
2022-09-16T11:35:34.466Z,1916.00
2022-09-16T11:36:34.462Z,1860.00
2022-09-16T11:37:34.457Z,1872.00
2022-09-16T11:38:34.448Z,1848.00
2022-09-16T11:39:34.444Z,1996.00
2022-09-16T11:40:34.525Z,2048.00
2022-09-16T11:41:34.432Z,2156.00
2022-09-16T11:42:34.426Z,2180.00
2022-09-16T11:43:34.421Z,2248.00
2022-09-16T11:44:34.431Z,2304.00
2022-09-16T11:45:34.438Z,2392.00
2022-09-16T11:46:34.484Z,2424.00
2022-09-16T11:47:38.446Z,2464.00
2022-09-16T11:48:34.393Z,2624.00
2022-09-16T11:49:34.384Z,2712.00
2022-09-16T11:50:34.507Z,2864.00
2022-09-16T11:51:34.376Z,3032.00
2022-09-16T11:52:34.488Z,3008.00
2022-09-16T11:53:37.765Z,2932.00
2022-09-16T11:54:34.358Z,2932.00
2022-09-16T11:55:34.350Z,2820.00
2022-09-16T11:56:34.346Z,2700.00
2022-09-16T11:57:34.340Z,2556.00
2022-09-16T11:58:34.336Z,2328.00
2022-09-16T11:59:34.329Z,2156.00
2022-09-16T12:00:34.326Z,2056.00
2022-09-16T12:01:34.415Z,2024.00
2022-09-16T12:02:34.492Z,2016.00
2022-09-16T12:03:34.308Z,2148.00
2022-09-16T12:04:36.325Z,2192.00
2022-09-16T12:05:34.309Z,2212.00
2022-09-16T12:06:34.419Z,2936.00
2022-09-16T12:07:34.313Z,2396.00
2022-09-16T12:08:34.283Z,2144.00
2022-09-16T12:09:34.274Z,2056.00
2022-09-16T12:10:34.283Z,1956.00
2022-09-16T12:11:34.276Z,1968.00
2022-09-16T12:12:34.263Z,2048.00
2022-09-16T12:13:34.355Z,2072.00
2022-09-16T12:14:34.249Z,2088.00
2022-09-16T12:16:34.256Z,2080.00
2022-09-16T12:17:34.232Z,2068.00
2022-09-16T12:18:34.226Z,2112.00
2022-09-16T12:19:34.220Z,2184.00
2022-09-16T12:20:34.216Z,2208.00
2022-09-16T12:21:34.212Z,2076.00
2022-09-16T12:22:34.333Z,2028.00
2022-09-16T12:23:34.196Z,2008.00
2022-09-16T12:24:34.192Z,1996.00
2022-09-16T12:25:34.187Z,2024.00
2022-09-16T12:26:34.181Z,2140.00
2022-09-16T12:27:34.176Z,2264.00
2022-09-16T12:28:34.175Z,3204.00
2022-09-16T12:29:34.162Z,2784.00
2022-09-16T12:30:34.158Z,2724.00
2022-09-16T12:31:34.175Z,3720.00
2022-09-16T12:32:34.148Z,3824.00
2022-09-16T12:33:34.142Z,3424.00
2022-09-16T12:34:34.135Z,3108.00
2022-09-16T12:35:34.149Z,2896.00
2022-09-16T12:36:34.125Z,3912.00
2022-09-16T12:37:34.116Z,3464.00
2022-09-16T12:38:34.240Z,3632.00
2022-09-16T12:39:34.105Z,3636.00
2022-09-16T12:40:34.142Z,2708.00
2022-09-16T12:41:34.096Z,2764.00
2022-09-16T12:42:34.092Z,3132.00
2022-09-16T12:43:34.090Z,3544.00
2022-09-16T12:44:34.919Z,3652.00
2022-09-16T12:45:34.076Z,2620.00
2022-09-16T12:46:34.091Z,2668.00
2022-09-16T12:47:34.064Z,2952.00